Time;durP1;ratioP1;P1;durP2;ratioP2;P2;SDS_P1;SDS_P2;PMS_P1;PMS_P2;Temp;Humidity;BMP_temperature;BMP_pressure;BME280_temperature;BME280_humidity;BME280_pressure;Samples;Min_cycle;Max_cycle;Signal;HPM_P1;HPM_P2
2023/03/22 00:00:01;;;;;;;;;;;;;;;19.81;58.50;98710.41;2079381;28;19993;-53
2023/03/22 00:01:09;;;;;;;;;;;;;;;19.81;58.10;98709.59;2078866;28;19932;-53
2023/03/22 00:02:10;;;;;;;;;;;;;;;19.80;58.22;98711.44;2078682;28;19937;-54
2023/03/22 00:03:11;;;;;;;;;;;;;;;19.79;58.08;98709.78;2078711;28;19932;-54
2023/03/22 00:04:13;;;;;;;;;;;;;;;19.79;58.35;98712.47;2076188;28;20032;-54
2023/03/22 00:05:13;;;;;;;;;;;;;;;19.78;58.43;98708.13;2076834;28;19928;-53
2023/03/22 00:06:16;;;;;;;;;;;;;;;19.79;58.33;98708.97;2075094;28;19991;-53
2023/03/22 00:07:16;;;;;;;;;;;;;;;19.79;58.02;98708.97;2075512;28;19940;-52
2023/03/22 00:08:18;;;;;;;;;;;;;;;19.77;58.30;98714.53;2077146;28;19932;-52
2023/03/22 00:09:18;;;;;;;;;;;;;;;19.78;58.48;98713.53;2078425;28;20012;-54
2023/03/22 00:10:20;;;;;;;;;;;;;;;19.76;57.97;98704.00;2076036;28;19963;-51
2023/03/22 00:11:23;;;;;;;;;;;;;;;19.75;58.10;98708.56;2076617;28;19940;-54
2023/03/22 00:12:24;;;;;;;;;;;;;;;19.75;58.35;98708.56;2082270;28;20275;-52
2023/03/22 00:13:25;;;;;;;;;;;;;;;19.74;58.42;98706.06;2085317;28;19973;-51
2023/03/22 00:14:26;;;;;;;;;;;;;;;19.73;58.31;98707.94;2085972;28;19933;-55
2023/03/22 00:15:28;;;;;;;;;;;;;;;19.73;58.17;98707.13;2088148;28;20448;-53
2023/03/22 00:16:31;;;;;;;;;;;;;;;19.73;58.56;98705.25;2085623;28;19936;-55
2023/03/22 00:17:31;;;;;;;;;;;;;;;19.73;58.39;98707.94;2088092;28;20646;-55
2023/03/22 00:18:33;;;;;;;;;;;;;;;19.72;58.48;98710.81;2086150;28;19928;-51
2023/03/22 00:19:33;;;;;;;;;;;;;;;19.71;58.36;98711.88;2085607;28;20395;-55
2023/03/22 00:20:36;;;;;;;;;;;;;;;19.71;58.32;98710.00;2086192;28;19929;-54
2023/03/22 00:21:37;;;;;;;;;;;;;;;19.70;58.16;98707.53;2085775;28;19962;-53
2023/03/22 00:22:39;;;;;;;;;;;;;;;19.69;58.35;98709.38;2089659;28;19924;-53
2023/03/22 00:23:39;;;;;;;;;;;;;;;19.69;58.24;98713.94;2087863;28;19925;-54
2023/03/22 00:24:41;;;;;;;;;;;;;;;19.68;58.17;98710.41;2084686;28;20338;-52
2023/03/22 00:25:42;;;;;;;;;;;;;;;19.67;58.49;98708.78;2085439;28;21737;-50
2023/03/22 00:26:46;;;;;;;;;;;;;;;19.67;58.35;98710.63;2088259;28;19925;-54
2023/03/22 00:27:46;;;;;;;;;;;;;;;19.66;58.38;98704.41;2085245;28;20023;-54
2023/03/22 00:28:47;;;;;;;;;;;;;;;19.67;58.49;98706.09;2086578;28;20283;-53
2023/03/22 00:29:50;;;;;;;;;;;;;;;19.66;58.29;98707.09;2087222;28;19928;-51
2023/03/22 00:30:52;;;;;;;;;;;;;;;19.65;58.31;98702.75;2088229;28;20386;-53
2023/03/22 00:31:54;;;;;;;;;;;;;;;19.63;58.20;98711.00;2087623;28;19962;-49
2023/03/22 00:32:56;;;;;;;;;;;;;;;19.63;58.14;98704.81;2086203;28;19929;-53
2023/03/22 00:33:57;;;;;;;;;;;;;;;19.64;58.41;98698.41;2086530;28;19975;-52
2023/03/22 00:34:58;;;;;;;;;;;;;;;19.62;58.14;98703.97;2088116;28;19924;-51
2023/03/22 00:36:00;;;;;;;;;;;;;;;19.61;58.18;98696.94;2085306;28;20573;-53
2023/03/22 00:37:01;;;;;;;;;;;;;;;19.60;58.11;98699.84;2085855;28;19925;-55
2023/03/22 00:38:13;;;;;;;;;;;;;;;19.60;58.13;98695.28;2086136;28;19964;-55
2023/03/22 00:39:14;;;;;;;;;;;;;;;19.61;58.26;98696.09;2086673;28;20491;-55
2023/03/22 00:40:15;;;;;;;;;;;;;;;19.60;58.12;98689.91;2083923;28;20026;-55
2023/03/22 00:41:17;;;;;;;;;;;;;;;19.59;58.45;98688.25;2077496;28;20101;-55
2023/03/22 00:42:18;;;;;;;;;;;;;;;19.60;58.50;98686.38;2078515;28;19936;-56
2023/03/22 00:43:19;;;;;;;;;;;;;;;19.59;58.09;98690.13;2077412;28;20600;-53
2023/03/22 00:44:20;;;;;;;;;;;;;;;19.58;58.36;98685.75;2079088;28;20965;-51
2023/03/22 00:45:21;;;;;;;;;;;;;;;19.58;58.18;98685.75;2079612;28;20027;-56
2023/03/22 00:46:23;;;;;;;;;;;;;;;19.56;58.20;98683.28;2076456;28;19936;-54
2023/03/22 00:47:25;;;;;;;;;;;;;;;19.55;58.58;98687.00;2078775;28;19967;-52
2023/03/22 00:48:26;;;;;;;;;;;;;;;19.56;58.13;98683.28;2085797;28;20557;-56
2023/03/22 00:49:27;;;;;;;;;;;;;;;19.56;58.54;98683.28;2077257;28;19937;-54
2023/03/22 00:50:28;;;;;;;;;;;;;;;19.55;58.56;98681.63;2077936;28;19932;-54
2023/03/22 00:51:29;;;;;;;;;;;;;;;19.53;58.54;98683.72;2078941;28;20382;-50
2023/03/22 00:52:30;;;;;;;;;;;;;;;19.53;58.43;98682.88;2076810;28;19990;-51
2023/03/22 00:53:31;;;;;;;;;;;;;;;19.54;58.52;98679.16;2084830;28;19961;-53
2023/03/22 00:54:33;;;;;;;;;;;;;;;19.53;58.31;98682.88;2086715;28;19925;-54
2023/03/22 00:55:33;;;;;;;;;;;;;;;19.52;58.20;98679.34;2079223;28;22705;-55
2023/03/22 00:56:36;;;;;;;;;;;;;;;19.51;58.14;98684.97;2077264;28;19929;-55
2023/03/22 00:57:36;;;;;;;;;;;;;;;19.51;58.13;98676.88;2078236;28;19932;-55
2023/03/22 00:58:38;;;;;;;;;;;;;;;19.50;58.31;98678.75;2074907;28;19937;-53
2023/03/22 00:59:38;;;;;;;;;;;;;;;19.51;58.30;98682.25;2076243;28;19974;-53
2023/03/22 01:00:40;;;;;;;;;;;;;;;19.49;58.40;98681.63;2083423;28;20445;-53
2023/03/22 01:01:41;;;;;;;;;;;;;;;19.49;58.52;98678.94;2083205;28;19982;-51
2023/03/22 01:02:44;;;;;;;;;;;;;;;19.47;58.35;98675.63;2075828;28;21775;-53
2023/03/22 01:03:48;;;;;;;;;;;;;;;19.49;58.36;98681.63;2076483;28;20808;-53
2023/03/22 01:04:49;;;;;;;;;;;;;;;19.49;58.36;98679.78;2081299;28;19928;-51
2023/03/22 01:05:54;;;;;;;;;;;;;;;19.47;58.50;98672.94;2078470;28;19935;-52
2023/03/22 01:06:58;;;;;;;;;;;;;;;19.46;58.38;98674.00;2073197;28;20016;-51
2023/03/22 01:08:01;;;;;;;;;;;;;;;19.46;58.26;98674.00;2075298;28;19928;-53
2023/03/22 01:09:03;;;;;;;;;;;;;;;19.46;58.59;98671.28;2074671;28;19925;-52
2023/03/22 01:10:05;;;;;;;;;;;;;;;19.45;58.07;98675.03;2077859;28;20031;-52
2023/03/22 01:11:06;;;;;;;;;;;;;;;19.43;58.49;98670.66;2076227;28;21298;-51
2023/03/22 01:12:08;;;;;;;;;;;;;;;19.43;58.32;98670.66;2076387;28;19976;-52
2023/03/22 01:13:09;;;;;;;;;;;;;;;19.42;58.53;98666.34;2078270;28;19936;-53
2023/03/22 01:14:12;;;;;;;;;;;;;;;19.42;58.43;98668.22;2075233;28;19979;-52
2023/03/22 01:15:13;;;;;;;;;;;;;;;19.41;58.54;98672.72;2078527;28;19936;-52
2023/03/22 01:16:14;;;;;;;;;;;;;;;19.40;58.28;98668.41;2081763;27;19925;-50
2023/03/22 01:17:15;;;;;;;;;;;;;;;19.41;58.18;98675.41;2075150;28;19986;-52
2023/03/22 01:18:18;;;;;;;;;;;;;;;19.40;58.46;98667.59;2078279;28;19976;-50
2023/03/22 01:19:18;;;;;;;;;;;;;;;19.39;58.25;98665.94;2078321;28;19932;-54
2023/03/22 01:20:20;;;;;;;;;;;;;;;19.39;58.32;98669.44;2077126;28;19929;-51
2023/03/22 01:21:20;;;;;;;;;;;;;;;19.37;58.44;98668.81;2077431;28;20280;-55
2023/03/22 01:22:22;;;;;;;;;;;;;;;19.38;58.41;98666.94;2081614;28;21958;-53
2023/03/22 01:23:22;;;;;;;;;;;;;;;19.36;58.22;98667.19;2078371;28;24066;-56
2023/03/22 01:24:24;;;;;;;;;;;;;;;19.35;58.58;98670.88;2074921;28;20903;-51
2023/03/22 01:25:24;;;;;;;;;;;;;;;19.35;58.63;98670.06;2076125;28;19962;-52
2023/03/22 01:26:26;;;;;;;;;;;;;;;19.35;58.24;98673.56;2077010;28;20078;-52
2023/03/22 01:27:26;;;;;;;;;;;;;;;19.35;58.33;98664.69;2077318;28;19936;-52
2023/03/22 01:28:27;;;;;;;;;;;;;;;19.33;58.40;98670.25;2074854;28;19933;-57
2023/03/22 01:29:30;;;;;;;;;;;;;;;19.34;58.35;98673.78;2076545;28;19982;-51
2023/03/22 01:30:31;;;;;;;;;;;;;;;19.32;58.22;98665.09;2077149;28;20397;-54
2023/03/22 01:31:31;;;;;;;;;;;;;;;19.32;58.55;98665.91;2081134;28;20451;-54
2023/03/22 01:32:33;;;;;;;;;;;;;;;19.32;58.64;98663.22;2079022;28;19978;-51
2023/03/22 01:33:35;;;;;;;;;;;;;;;19.32;58.47;98659.72;2076623;28;20370;-52
2023/03/22 01:34:37;;;;;;;;;;;;;;;19.30;58.51;98667.16;2076111;28;20472;-54
2023/03/22 01:35:38;;;;;;;;;;;;;;;19.31;58.47;98664.28;2079336;28;20401;-56
2023/03/22 01:36:39;;;;;;;;;;;;;;;19.32;58.30;98667.78;2076610;28;19928;-51
2023/03/22 01:37:40;;;;;;;;;;;;;;;19.30;58.16;98662.59;2075887;28;19940;-52
2023/03/22 01:38:41;;;;;;;;;;;;;;;19.29;58.35;98665.50;2075076;28;21238;-51
2023/03/22 01:39:42;;;;;;;;;;;;;;;19.29;58.42;98677.09;2076891;28;20023;-52
2023/03/22 01:40:43;;;;;;;;;;;;;;;19.28;58.25;98670.06;2076666;28;19933;-53
2023/03/22 01:41:44;;;;;;;;;;;;;;;19.27;58.27;98676.47;2077994;28;19960;-52
2023/03/22 01:42:45;;;;;;;;;;;;;;;19.26;58.16;98672.13;2076486;28;21091;-53
2023/03/22 01:44:01;;;;;;;;;;;;;;;19.27;58.40;98672.94;2077947;28;20006;-55
2023/03/22 01:45:36;;;;;;;;;;;;;;;19.27;58.59;98672.94;2077270;28;19928;-55
2023/03/22 01:46:37;;;;;;;;;;;;;;;19.26;58.35;98668.63;2076703;28;19929;-52
2023/03/22 01:47:39;;;;;;;;;;;;;;;19.25;58.44;98669.63;2084810;28;20468;-51
2023/03/22 01:48:44;;;;;;;;;;;;;;;19.25;58.30;98670.50;2080297;28;19986;-55
2023/03/22 01:49:46;;;;;;;;;;;;;;;19.24;58.19;98670.69;2077510;28;20389;-49
2023/03/22 01:50:54;;;;;;;;;;;;;;;19.24;58.27;98666.13;2080520;28;19933;-52
2023/03/22 01:51:58;;;;;;;;;;;;;;;19.23;58.54;98661.78;2079343;28;20019;-53
2023/03/22 01:52:59;;;;;;;;;;;;;;;19.23;58.13;98666.34;2077341;28;19928;-52
2023/03/22 01:54:02;;;;;;;;;;;;;;;19.22;58.49;98665.50;2079354;28;19929;-49
2023/03/22 01:55:05;;;;;;;;;;;;;;;19.22;58.65;98667.38;2080704;28;19979;-55
2023/03/22 01:56:07;;;;;;;;;;;;;;;19.21;58.51;98663.84;2076855;28;19924;-53
2023/03/22 01:57:08;;;;;;;;;;;;;;;19.20;58.47;98672.97;2078151;28;19932;-55
2023/03/22 01:58:09;;;;;;;;;;;;;;;19.19;58.34;98671.28;2076831;28;19929;-53
2023/03/22 01:59:12;;;;;;;;;;;;;;;19.19;58.36;98665.91;2078665;28;19932;-53
2023/03/22 02:00:15;;;;;;;;;;;;;;;19.18;58.35;98667.78;2077472;28;19936;-53
2023/03/22 02:01:16;;;;;;;;;;;;;;;19.19;58.48;98668.59;2075587;28;20399;-53
2023/03/22 02:02:18;;;;;;;;;;;;;;;19.18;58.45;98664.28;2077990;28;19932;-51
2023/03/22 02:03:23;;;;;;;;;;;;;;;19.17;58.17;98660.75;2080724;28;19940;-52
2023/03/22 02:04:32;;;;;;;;;;;;;;;19.15;58.55;98662.81;2077279;28;19936;-53
2023/03/22 02:05:34;;;;;;;;;;;;;;;19.17;58.45;98662.63;2078508;28;20977;-53
2023/03/22 02:06:37;;;;;;;;;;;;;;;19.15;58.73;98659.31;2076258;28;20015;-55
2023/03/22 02:07:39;;;;;;;;;;;;;;;19.14;58.17;98655.78;2077445;28;19972;-50
2023/03/22 02:08:41;;;;;;;;;;;;;;;19.16;58.44;98660.94;2077482;28;19929;-50
2023/03/22 02:09:42;;;;;;;;;;;;;;;19.15;58.35;98659.31;2078724;28;19932;-51
2023/03/22 02:10:43;;;;;;;;;;;;;;;19.15;58.67;98656.63;2077112;28;19936;-53
2023/03/22 02:11:48;;;;;;;;;;;;;;;19.13;58.58;98656.00;2078612;28;20374;-51
2023/03/22 02:12:57;;;;;;;;;;;;;;;19.13;58.22;98664.06;2088343;28;19929;-51
2023/03/22 02:14:09;;;;;;;;;;;;;;;19.11;58.48;98658.91;2085403;28;19960;-50
2023/03/22 02:15:16;;;;;;;;;;;;;;;19.13;58.70;98653.31;2084277;27;19928;-54
2023/03/22 02:16:24;;;;;;;;;;;;;;;19.10;58.52;98656.41;2085749;28;19932;-51
2023/03/22 02:17:28;;;;;;;;;;;;;;;19.10;58.60;98653.72;2074564;28;20383;-53
2023/03/22 02:18:34;;;;;;;;;;;;;;;19.10;58.39;98657.22;2082904;28;19982;-52
2023/03/22 02:19:55;;;;;;;;;;;;;;;19.12;58.48;98662.41;2089346;28;19929;-53
2023/03/22 02:21:18;;;;;;;;;;;;;;;19.13;58.23;98656.00;2087123;28;19929;-53
2023/03/22 02:22:38;;;;;;;;;;;;;;;19.10;58.29;98657.22;2084944;28;21046;-53
2023/03/22 02:24:03;;;;;;;;;;;;;;;19.10;58.43;98662.59;2084285;28;20043;-53
2023/03/22 02:25:16;;;;;;;;;;;;;;;19.09;58.33;98663.66;2086241;28;19928;-53
2023/03/22 02:26:45;;;;;;;;;;;;;;;19.08;58.54;98664.66;2087865;28;19928;-50
2023/03/22 02:27:55;;;;;;;;;;;;;;;19.07;58.31;98664.88;2056160;28;19930;-50
2023/03/22 02:29:03;;;;;;;;;;;;;;;19.07;58.55;98664.88;2078693;28;19974;-51
2023/03/22 02:30:16;;;;;;;;;;;;;;;19.05;58.42;98664.25;2087059;28;19925;-50
2023/03/22 02:31:31;;;;;;;;;;;;;;;19.05;58.37;98669.63;2084410;28;19928;-53
2023/03/22 02:32:52;;;;;;;;;;;;;;;19.05;58.47;98664.25;2085896;28;20330;-54
2023/03/22 02:34:16;;;;;;;;;;;;;;;19.04;58.63;98666.13;2084062;28;19993;-52
2023/03/22 02:35:24;;;;;;;;;;;;;;;19.03;58.18;98666.31;2086481;28;19931;-52
2023/03/22 02:36:46;;;;;;;;;;;;;;;19.02;58.58;98662.81;2084357;28;19983;-53
2023/03/22 02:37:55;;;;;;;;;;;;;;;19.02;58.41;98661.97;2066859;28;19929;-51
2023/03/22 02:39:12;;;;;;;;;;;;;;;19.01;58.69;98663.84;2083803;28;19933;-50
2023/03/22 02:40:15;;;;;;;;;;;;;;;18.99;58.34;98660.53;2083345;28;19954;-54
2023/03/22 02:41:20;;;;;;;;;;;;;;;19.01;58.36;98663.03;2085486;28;19939;-54
2023/03/22 02:42:27;;;;;;;;;;;;;;;19.01;58.45;98660.34;2076471;28;20039;-54
2023/03/22 02:43:33;;;;;;;;;;;;;;;19.00;58.51;98662.19;2078212;28;21707;-52
2023/03/22 02:44:40;;;;;;;;;;;;;;;19.01;58.28;98663.03;2081682;28;19932;-53
2023/03/22 02:45:43;;;;;;;;;;;;;;;19.00;58.29;98659.50;2077016;28;20436;-52
2023/03/22 02:46:48;;;;;;;;;;;;;;;19.01;58.45;98663.03;2076788;28;19928;-53
2023/03/22 02:47:53;;;;;;;;;;;;;;;18.98;58.35;98670.47;2086394;28;20416;-53
2023/03/22 02:49:00;;;;;;;;;;;;;;;18.96;58.74;98661.75;2080213;28;19932;-52
2023/03/22 02:50:04;;;;;;;;;;;;;;;18.96;58.36;98663.63;2080035;28;19982;-55
2023/03/22 02:51:10;;;;;;;;;;;;;;;18.96;58.31;98669.81;2077413;28;20463;-53
2023/03/22 02:52:16;;;;;;;;;;;;;;;18.94;58.40;98668.38;2077927;28;19937;-54
2023/03/22 02:53:20;;;;;;;;;;;;;;;18.94;58.57;98668.38;2077521;28;19936;-53
2023/03/22 02:54:27;;;;;;;;;;;;;;;18.95;58.36;98670.88;2079870;28;19975;-54
2023/03/22 02:55:30;;;;;;;;;;;;;;;18.94;58.18;98657.63;2078154;28;19933;-53
2023/03/22 02:56:38;;;;;;;;;;;;;;;18.94;58.39;98663.84;2079461;28;19932;-51
2023/03/22 02:57:42;;;;;;;;;;;;;;;18.95;58.18;98664.66;2086061;28;20371;-53
2023/03/22 02:58:44;;;;;;;;;;;;;;;18.92;58.32;98663.22;2084077;28;19933;-55
2023/03/22 02:59:47;;;;;;;;;;;;;;;18.92;58.43;98660.53;2077146;28;21030;-59
2023/03/22 03:00:49;;;;;;;;;;;;;;;18.92;58.44;98662.41;2082274;28;19993;-54
2023/03/22 03:01:53;;;;;;;;;;;;;;;18.91;58.45;98658.84;2086226;28;19932;-57
2023/03/22 03:02:55;;;;;;;;;;;;;;;18.92;58.33;98665.91;2087763;28;19928;-59
2023/03/22 03:03:59;;;;;;;;;;;;;;;18.90;58.40;98662.59;2085584;28;19932;-49
2023/03/22 03:05:00;;;;;;;;;;;;;;;18.91;58.39;98658.03;2086540;28;20437;-57
2023/03/22 03:06:04;;;;;;;;;;;;;;;18.92;58.57;98660.53;2078925;28;19936;-58
2023/03/22 03:07:08;;;;;;;;;;;;;;;18.90;58.42;98661.75;2077391;28;20431;-56
2023/03/22 03:08:10;;;;;;;;;;;;;;;18.92;58.37;98663.22;2079452;28;19940;-54
2023/03/22 03:09:12;;;;;;;;;;;;;;;18.89;58.46;98663.63;2080332;28;19973;-59
2023/03/22 03:10:16;;;;;;;;;;;;;;;18.88;58.20;98666.50;2080186;28;19928;-59
2023/03/22 03:11:16;;;;;;;;;;;;;;;18.90;58.26;98664.47;2078393;28;19929;-51
2023/03/22 03:12:18;;;;;;;;;;;;;;;18.85;58.42;98659.69;2075407;28;19925;-55
2023/03/22 03:13:20;;;;;;;;;;;;;;;18.84;58.38;98668.78;2079760;28;19935;-54
2023/03/22 03:14:25;;;;;;;;;;;;;;;18.86;58.45;98669.41;2073270;28;19933;-54
2023/03/22 03:15:25;;;;;;;;;;;;;;;18.84;58.38;98667.97;2073161;28;19936;-54
2023/03/22 03:16:28;;;;;;;;;;;;;;;18.83;58.41;98667.13;2074704;28;21280;-49
2023/03/22 03:17:37;;;;;;;;;;;;;;;18.84;58.42;98667.97;2075929;28;20029;-57
2023/03/22 03:18:43;;;;;;;;;;;;;;;18.86;58.36;98668.56;2074338;28;19935;-59
2023/03/22 03:19:46;;;;;;;;;;;;;;;18.83;58.37;98667.13;2076375;28;20023;-58
2023/03/22 03:20:53;;;;;;;;;;;;;;;18.85;58.36;98667.75;2078978;28;20013;-57
2023/03/22 03:21:59;;;;;;;;;;;;;;;18.84;58.62;98666.09;2077911;28;19928;-52
2023/03/22 03:23:12;;;;;;;;;;;;;;;18.85;58.33;98666.91;2078889;28;19928;-52
2023/03/22 03:24:20;;;;;;;;;;;;;;;18.81;58.63;98669.19;2076559;28;19928;-57
2023/03/22 03:25:27;;;;;;;;;;;;;;;18.81;58.58;98669.19;2076021;28;19928;-51
2023/03/22 03:26:33;;;;;;;;;;;;;;;18.80;58.55;98669.38;2075197;28;20305;-53
2023/03/22 03:27:37;;;;;;;;;;;;;;;18.79;58.76;98681.19;2079187;28;20013;-55
2023/03/22 03:28:45;;;;;;;;;;;;;;;18.80;58.52;98672.91;2077826;28;19966;-55
2023/03/22 03:29:49;;;;;;;;;;;;;;;18.80;58.65;98674.75;2078536;28;20012;-59
2023/03/22 03:30:55;;;;;;;;;;;;;;;18.79;58.42;98676.63;2077450;28;21714;-49
2023/03/22 03:31:59;;;;;;;;;;;;;;;18.81;58.57;98679.13;2079885;28;20002;-52
2023/03/22 03:33:02;;;;;;;;;;;;;;;18.77;58.39;98673.31;2076029;28;20589;-51
2023/03/22 03:34:08;;;;;;;;;;;;;;;18.77;58.43;98678.69;2078822;28;19935;-52
2023/03/22 03:35:16;;;;;;;;;;;;;;;18.77;58.51;98677.84;2079323;28;20054;-57
2023/03/22 03:36:20;;;;;;;;;;;;;;;18.78;58.25;98682.19;2078283;28;19978;-53
2023/03/22 03:37:25;;;;;;;;;;;;;;;18.77;58.39;98684.06;2071366;28;19932;-50
2023/03/22 03:38:28;;;;;;;;;;;;;;;18.74;58.64;98685.28;2074088;28;19936;-48
2023/03/22 03:39:31;;;;;;;;;;;;;;;18.73;58.66;98682.78;2074439;28;19937;-52
2023/03/22 03:40:37;;;;;;;;;;;;;;;18.72;58.70;98683.81;2075657;28;20039;-51
2023/03/22 03:41:38;;;;;;;;;;;;;;;18.70;58.60;98684.03;2078610;28;19974;-54
2023/03/22 03:42:41;;;;;;;;;;;;;;;18.73;58.56;98677.41;2082265;28;19940;-52
2023/03/22 03:43:42;;;;;;;;;;;;;;;18.72;58.31;98683.81;2076998;28;21936;-51
2023/03/22 03:44:44;;;;;;;;;;;;;;;18.73;58.53;98682.78;2076359;28;19933;-55
2023/03/22 03:45:44;;;;;;;;;;;;;;;18.71;58.75;98685.66;2082181;28;21496;-56
2023/03/22 03:46:46;;;;;;;;;;;;;;;18.70;58.64;98678.66;2077833;28;19936;-51
2023/03/22 03:47:54;;;;;;;;;;;;;;;18.69;58.82;98681.53;2082186;28;20049;-51
2023/03/22 03:48:57;;;;;;;;;;;;;;;18.71;58.42;98687.53;2084804;28;20015;-54
2023/03/22 03:49:57;;;;;;;;;;;;;;;18.68;58.67;98675.31;2075103;28;19993;-51
2023/03/22 03:51:00;;;;;;;;;;;;;;;18.68;58.68;98682.56;2078342;28;19932;-54
2023/03/22 03:52:02;;;;;;;;;;;;;;;18.68;58.74;98679.88;2079241;28;19939;-50
2023/03/22 03:53:04;;;;;;;;;;;;;;;18.67;58.59;98678.22;2074688;28;19974;-50
2023/03/22 03:54:05;;;;;;;;;;;;;;;18.66;58.71;98681.94;2076306;28;19932;-52
2023/03/22 03:55:06;;;;;;;;;;;;;;;18.66;58.66;98681.94;2073557;28;19970;-52
2023/03/22 03:56:08;;;;;;;;;;;;;;;18.65;58.73;98675.72;2080273;28;20578;-51
2023/03/22 03:57:10;;;;;;;;;;;;;;;18.67;58.62;98675.56;2074945;28;20456;-52
2023/03/22 03:58:11;;;;;;;;;;;;;;;18.63;58.80;98672.41;2077046;28;19935;-55
2023/03/22 03:59:14;;;;;;;;;;;;;;;18.64;58.46;98671.41;2077083;28;20059;-50
2023/03/22 04:00:15;;;;;;;;;;;;;;;18.66;58.75;98681.94;2076031;28;19935;-52
2023/03/22 04:01:18;;;;;;;;;;;;;;;18.67;58.49;98678.22;2075878;27;19929;-49
2023/03/22 04:02:19;;;;;;;;;;;;;;;18.65;58.56;98675.72;2072075;28;19940;-54
2023/03/22 04:03:20;;;;;;;;;;;;;;;18.65;58.32;98678.44;2082484;28;19928;-53
2023/03/22 04:04:25;;;;;;;;;;;;;;;18.66;58.70;98682.75;2074856;28;20042;-51
2023/03/22 04:05:26;;;;;;;;;;;;;;;18.64;58.54;98678.66;2079655;28;19939;-52
2023/03/22 04:06:27;;;;;;;;;;;;;;;18.64;58.44;98684.00;2073248;28;19928;-56
2023/03/22 04:07:29;;;;;;;;;;;;;;;18.61;58.57;98679.88;2077030;28;19929;-50
2023/03/22 04:08:29;;;;;;;;;;;;;;;18.62;58.57;98683.38;2072221;28;19932;-50
2023/03/22 04:09:32;;;;;;;;;;;;;;;18.62;58.50;98686.06;2074475;28;20063;-53
2023/03/22 04:10:32;;;;;;;;;;;;;;;18.61;58.68;98681.72;2077680;28;21395;-53
2023/03/22 04:11:35;;;;;;;;;;;;;;;18.60;58.58;98680.06;2071458;28;19939;-54
2023/03/22 04:12:36;;;;;;;;;;;;;;;18.62;58.82;98686.06;2083313;28;20696;-55
2023/03/22 04:13:37;;;;;;;;;;;;;;;18.61;58.52;98689.75;2082294;28;19955;-50
2023/03/22 04:14:38;;;;;;;;;;;;;;;18.61;58.84;98681.72;2085067;28;19995;-53
2023/03/22 04:15:39;;;;;;;;;;;;;;;18.62;58.51;98686.06;2085555;28;19962;-52
2023/03/22 04:16:40;;;;;;;;;;;;;;;18.63;58.31;98683.16;2085372;28;19932;-53
2023/03/22 04:17:41;;;;;;;;;;;;;;;18.61;58.45;98677.19;2084232;28;19932;-53
2023/03/22 04:18:41;;;;;;;;;;;;;;;18.60;58.66;98688.13;2082117;28;19936;-52
2023/03/22 04:19:44;;;;;;;;;;;;;;;18.62;58.72;98686.88;2081179;28;20375;-51
2023/03/22 04:20:45;;;;;;;;;;;;;;;18.64;58.48;98686.69;2075211;28;20264;-51
2023/03/22 04:21:46;;;;;;;;;;;;;;;18.62;58.51;98686.06;2084616;28;19933;-52
2023/03/22 04:22:47;;;;;;;;;;;;;;;18.63;58.62;98683.16;2084853;28;19989;-54
2023/03/22 04:23:49;;;;;;;;;;;;;;;18.63;58.67;98682.34;2082133;28;19935;-52
2023/03/22 04:24:49;;;;;;;;;;;;;;;18.62;58.66;98684.22;2082249;28;21561;-54
2023/03/22 04:25:51;;;;;;;;;;;;;;;18.62;58.48;98676.16;2082523;28;19933;-57
2023/03/22 04:26:53;;;;;;;;;;;;;;;18.63;58.41;98676.97;2079846;28;19971;-53
2023/03/22 04:27:54;;;;;;;;;;;;;;;18.62;58.61;98676.16;2082685;28;20024;-52
2023/03/22 04:28:55;;;;;;;;;;;;;;;18.62;58.57;98676.16;2082926;28;20009;-53
2023/03/22 04:29:59;;;;;;;;;;;;;;;18.63;58.32;98682.34;2086630;28;19929;-51
2023/03/22 04:31:02;;;;;;;;;;;;;;;18.62;58.59;98673.47;2085519;28;19932;-56
2023/03/22 04:32:04;;;;;;;;;;;;;;;18.62;58.36;98669.94;2085678;28;19990;-55
2023/03/22 04:33:05;;;;;;;;;;;;;;;18.62;58.48;98668.09;2084581;28;19982;-55
2023/03/22 04:34:07;;;;;;;;;;;;;;;18.62;58.40;98670.78;2083977;28;19932;-55
2023/03/22 04:35:07;;;;;;;;;;;;;;;18.63;58.39;98676.97;2081344;28;20537;-52
2023/03/22 04:36:10;;;;;;;;;;;;;;;18.64;58.21;98674.09;2085645;28;19932;-56
2023/03/22 04:37:11;;;;;;;;;;;;;;;18.66;58.51;98676.56;2085737;28;19943;-52
2023/03/22 04:38:12;;;;;;;;;;;;;;;18.66;58.46;98668.50;2086377;28;19936;-53
2023/03/22 04:39:14;;;;;;;;;;;;;;;18.65;58.56;98675.72;2087375;28;20477;-54
2023/03/22 04:40:15;;;;;;;;;;;;;;;18.70;58.57;98673.28;2084413;28;19928;-50
2023/03/22 04:41:17;;;;;;;;;;;;;;;18.71;58.27;98669.53;2079523;28;20047;-53
2023/03/22 04:42:19;;;;;;;;;;;;;;;18.74;58.43;98666.47;2076082;28;19932;-53
2023/03/22 04:43:21;;;;;;;;;;;;;;;18.79;58.42;98668.56;2080149;28;19933;-55
2023/03/22 04:44:22;;;;;;;;;;;;;;;18.83;58.35;98667.13;2072991;28;20629;-56
2023/03/22 04:45:23;;;;;;;;;;;;;;;18.87;58.25;98670.25;2075334;28;19932;-53
2023/03/22 04:46:25;;;;;;;;;;;;;;;18.91;57.92;98666.09;2078208;28;20463;-47
2023/03/22 04:47:25;;;;;;;;;;;;;;;18.93;57.90;98667.56;2087800;28;19994;-54
2023/03/22 04:48:28;;;;;;;;;;;;;;;18.98;58.09;98675.84;2081327;28;19940;-54
2023/03/22 04:49:30;;;;;;;;;;;;;;;19.01;58.02;98671.09;2077986;28;20023;-53
2023/03/22 04:50:31;;;;;;;;;;;;;;;19.05;58.00;98669.63;2079194;28;20335;-50
2023/03/22 04:51:32;;;;;;;;;;;;;;;19.09;57.84;98673.56;2081015;28;19978;-53
2023/03/22 04:52:33;;;;;;;;;;;;;;;19.12;57.59;98670.47;2079832;28;20405;-51
2023/03/22 04:53:37;;;;;;;;;;;;;;;19.14;57.55;98671.09;2086447;28;19928;-53
2023/03/22 04:54:39;;;;;;;;;;;;;;;19.16;57.78;98667.16;2087591;28;20642;-53
2023/03/22 04:55:39;;;;;;;;;;;;;;;19.20;57.68;98667.59;2077095;28;20437;-53
2023/03/22 04:56:41;;;;;;;;;;;;;;;19.23;57.77;98675.25;2077933;28;19924;-55
2023/03/22 04:57:43;;;;;;;;;;;;;;;19.26;57.63;98680.19;2073327;28;19982;-55
2023/03/22 04:58:45;;;;;;;;;;;;;;;19.27;57.68;98672.94;2075910;28;19977;-54
2023/03/22 04:59:45;;;;;;;;;;;;;;;19.29;57.80;98677.09;2078910;28;20003;-49
2023/03/22 05:00:47;;;;;;;;;;;;;;;19.33;57.69;98677.50;2081722;28;19932;-56
2023/03/22 05:01:48;;;;;;;;;;;;;;;19.34;57.66;98679.16;2077762;28;19933;-52
2023/03/22 05:02:50;;;;;;;;;;;;;;;19.35;57.67;98681.63;2076232;28;19935;-52
2023/03/22 05:03:50;;;;;;;;;;;;;;;19.38;57.29;98680.41;2076963;28;19968;-53
2023/03/22 05:04:52;;;;;;;;;;;;;;;19.39;57.65;98674.00;2079185;28;19932;-53
2023/03/22 05:05:53;;;;;;;;;;;;;;;19.41;57.50;98680.81;2078454;28;19937;-50
2023/03/22 05:06:55;;;;;;;;;;;;;;;19.42;57.58;98681.66;2078843;28;20039;-53
2023/03/22 05:07:55;;;;;;;;;;;;;;;19.46;57.21;98682.06;2080608;28;19924;-53
2023/03/22 05:08:56;;;;;;;;;;;;;;;19.47;57.34;98678.31;2079046;28;20356;-51
2023/03/22 05:09:57;;;;;;;;;;;;;;;19.49;57.51;98684.31;2076880;28;19924;-53
2023/03/22 05:11:00;;;;;;;;;;;;;;;19.49;57.30;98678.94;2079562;28;20025;-49
2023/03/22 05:12:01;;;;;;;;;;;;;;;19.51;57.16;98679.56;2078095;28;19973;-51
2023/03/22 05:13:04;;;;;;;;;;;;;;;19.52;57.42;98675.84;2079211;28;19932;-52
2023/03/22 05:14:04;;;;;;;;;;;;;;;19.53;57.38;98677.47;2079135;28;20619;-50
2023/03/22 05:15:06;;;;;;;;;;;;;;;19.54;57.21;98689.91;2079259;28;19978;-56
2023/03/22 05:16:08;;;;;;;;;;;;;;;19.55;57.09;98687.00;2079708;28;19929;-54
2023/03/22 05:17:09;;;;;;;;;;;;;;;19.57;57.27;98684.94;2077441;28;19979;-54
2023/03/22 05:18:10;;;;;;;;;;;;;;;19.57;57.31;98687.63;2077664;28;20975;-52
2023/03/22 05:19:13;;;;;;;;;;;;;;;19.59;57.24;98685.56;2077832;28;19932;-55
2023/03/22 05:20:14;;;;;;;;;;;;;;;19.60;57.08;98683.69;2075425;28;20011;-54
2023/03/22 05:21:16;;;;;;;;;;;;;;;19.60;57.24;98689.91;2080316;28;20379;-52
2023/03/22 05:22:18;;;;;;;;;;;;;;;19.61;57.08;98688.03;2080097;28;20006;-50
2023/03/22 05:23:19;;;;;;;;;;;;;;;19.63;57.16;98688.66;2082221;28;19929;-51
2023/03/22 05:24:20;;;;;;;;;;;;;;;19.64;56.88;98687.63;2078883;28;19968;-54
2023/03/22 05:25:22;;;;;;;;;;;;;;;19.64;57.02;98687.63;2075540;28;19933;-54
2023/03/22 05:26:25;;;;;;;;;;;;;;;19.64;57.21;98693.03;2078834;28;19936;-47
2023/03/22 05:27:30;;;;;;;;;;;;;;;19.66;57.06;98693.66;2076588;28;19924;-53
2023/03/22 05:28:32;;;;;;;;;;;;;;;19.67;56.77;98687.25;2078296;28;19932;-54
2023/03/22 05:29:35;;;;;;;;;;;;;;;19.68;57.10;98694.28;2078216;28;19929;-55